Tuluksak, Alaska
Current Conditions -  °F | °C
As of 10:29 PM on Friday 28 Nov 2014 (Local Time) from PFKW Reporting Station
Overcast Overcast  
Wind Chill: 23°   Ceiling: 4500
Heat Index: 23°   Visibility: 10mi
Dew Point: 21°   Wind: 0mph
Humidity: 93%   Direction: NA
Pressure: 30.1"   Gusts: NA
Location:  61.09°N, 160.98°W
Report Text: PFKW 290729Z AUTO 00000KT 10SM SCT008 OVC045 M05/M06 A3010 RMK AO2 FZRANO
Loading
Personal Weather Stations






























Interactive Weather Map New forecast layout! Learn more

10-Day Weather Forecast

Advertisements
Track Severe Weather on mobile